KSKA/SKA METAR and TAF weather

Enter ICAO airport designator
Station Type Date Time Source
KSKA METAR 2020/08/12 16:58 UTC NOAA

KSKA 121658Z AUTO 19010KT 10SM SCT130 BKN150 BKN210 16/03 A2991 RMK AO2 SLP120 T01560031 $


Station Type Date Time Source
KSKA Decoded METAR 2020/08/12 16:58 UTC NOAA

Fairchild Air Force Base, WA, United States (KSKA) 47-37N 117-39W
Aug 12, 2020 - 12:58 PM EDT / 2020.08.12 1658 UTC
Wind: from the S (190 degrees) at 12 MPH (10 KT):0
Visibility: 10 mile(s):0
Sky conditions: mostly cloudy
Temperature: 60.1 F (15.6 C)
Dew Point: 37.6 F (3.1 C)
Relative Humidity: 43%
Pressure (altimeter): 29.91 in. Hg (1012 hPa)
ob: KSKA 121658Z AUTO 19010KT 10SM SCT130 BKN150 BKN210 16/03 A2991 RMK AO2 SLP120 T01560031
cycle: 17

Station Type Date Time Source
KSKA TAF 2020/08/12 11:54 UTC NOAA

TAF KSKA 121100Z 1211/1317 19010G15KT 9999 SCT150 BKN200 QNH2980INS
BECMG 1218/1219 22012G18KT 9999 SCT100 BKN160 QNH2997INS
BECMG 1302/1303 16009KT 9999 SCT150 QNH2998INS TX22/1223Z TN10/1311Z

Example: see airport list